sensor_id;sensor_type;location;lat;lon;timestamp;P1;durP1;ratioP1;P2;durP2;ratioP2
19560;SDS011;9927;47.792;10.616;2022-12-18T04:01:46;41.57;;;17.50;;
19560;SDS011;9927;47.792;10.616;2022-12-18T04:04:16;38.47;;;18.40;;
19560;SDS011;9927;47.792;10.616;2022-12-18T04:06:45;71.47;;;19.20;;
19560;SDS011;9927;47.792;10.616;2022-12-18T04:09:14;42.67;;;16.47;;
19560;SDS011;9927;47.792;10.616;2022-12-18T04:11:42;49.43;;;18.67;;
19560;SDS011;9927;47.792;10.616;2022-12-18T04:14:11;53.87;;;20.27;;
19560;SDS011;9927;47.792;10.616;2022-12-18T04:16:43;40.77;;;17.87;;
19560;SDS011;9927;47.792;10.616;2022-12-18T04:19:11;40.77;;;18.30;;
19560;SDS011;9927;47.792;10.616;2022-12-18T04:21:38;61.87;;;18.73;;
19560;SDS011;9927;47.792;10.616;2022-12-18T04:24:05;48.07;;;17.80;;
19560;SDS011;9927;47.792;10.616;2022-12-18T04:26:33;68.17;;;18.87;;
19560;SDS011;9927;47.792;10.616;2022-12-18T04:29:00;64.73;;;20.10;;
19560;SDS011;9927;47.792;10.616;2022-12-18T04:31:27;38.97;;;17.73;;
19560;SDS011;9927;47.792;10.616;2022-12-18T04:33:54;44.07;;;19.07;;
19560;SDS011;9927;47.792;10.616;2022-12-18T04:36:22;39.27;;;19.27;;
19560;SDS011;9927;47.792;10.616;2022-12-18T04:38:49;46.80;;;19.07;;
19560;SDS011;9927;47.792;10.616;2022-12-18T04:41:17;42.33;;;18.53;;
19560;SDS011;9927;47.792;10.616;2022-12-18T04:43:44;55.77;;;19.93;;
19560;SDS011;9927;47.792;10.616;2022-12-18T04:46:11;61.80;;;19.60;;
19560;SDS011;9927;47.792;10.616;2022-12-18T04:48:38;46.80;;;19.97;;
19560;SDS011;9927;47.792;10.616;2022-12-18T04:51:06;53.27;;;21.27;;
19560;SDS011;9927;47.792;10.616;2022-12-18T04:53:34;42.70;;;18.77;;
19560;SDS011;9927;47.792;10.616;2022-12-18T04:56:08;63.50;;;19.27;;
19560;SDS011;9927;47.792;10.616;2022-12-18T04:58:38;53.93;;;18.53;;
19560;SDS011;9927;47.792;10.616;2022-12-18T05:01:07;38.07;;;16.00;;
19560;SDS011;9927;47.792;10.616;2022-12-18T05:03:35;40.83;;;18.33;;
19560;SDS011;9927;47.792;10.616;2022-12-18T05:06:04;42.67;;;18.93;;
19560;SDS011;9927;47.792;10.616;2022-12-18T05:08:32;42.33;;;18.53;;
19560;SDS011;9927;47.792;10.616;2022-12-18T05:11:07;65.03;;;20.13;;
19560;SDS011;9927;47.792;10.616;2022-12-18T05:13:36;41.57;;;17.77;;
19560;SDS011;9927;47.792;10.616;2022-12-18T05:16:05;62.77;;;20.07;;
19560;SDS011;9927;47.792;10.616;2022-12-18T05:18:33;66.53;;;18.10;;
19560;SDS011;9927;47.792;10.616;2022-12-18T05:21:01;34.93;;;16.27;;
19560;SDS011;9927;47.792;10.616;2022-12-18T05:23:28;38.77;;;17.20;;
19560;SDS011;9927;47.792;10.616;2022-12-18T05:26:00;40.53;;;18.33;;
19560;SDS011;9927;47.792;10.616;2022-12-18T05:28:30;37.30;;;17.20;;
19560;SDS011;9927;47.792;10.616;2022-12-18T05:30:59;44.50;;;18.63;;
19560;SDS011;9927;47.792;10.616;2022-12-18T05:33:30;33.77;;;16.80;;
19560;SDS011;9927;47.792;10.616;2022-12-18T05:36:00;44.70;;;19.43;;
19560;SDS011;9927;47.792;10.616;2022-12-18T05:38:30;37.73;;;17.00;;
19560;SDS011;9927;47.792;10.616;2022-12-18T05:40:59;46.13;;;18.80;;
19560;SDS011;9927;47.792;10.616;2022-12-18T05:43:27;53.70;;;18.30;;
19560;SDS011;9927;47.792;10.616;2022-12-18T05:45:55;55.07;;;18.47;;
19560;SDS011;9927;47.792;10.616;2022-12-18T05:48:23;39.90;;;17.90;;
19560;SDS011;9927;47.792;10.616;2022-12-18T05:50:50;36.97;;;16.67;;
19560;SDS011;9927;47.792;10.616;2022-12-18T05:53:18;46.50;;;17.70;;
19560;SDS011;9927;47.792;10.616;2022-12-18T05:55:47;42.43;;;18.50;;
19560;SDS011;9927;47.792;10.616;2022-12-18T05:58:14;50.67;;;19.57;;
19560;SDS011;9927;47.792;10.616;2022-12-18T06:00:44;61.00;;;19.40;;
19560;SDS011;9927;47.792;10.616;2022-12-18T06:03:12;44.90;;;18.17;;
19560;SDS011;9927;47.792;10.616;2022-12-18T06:05:41;51.43;;;18.07;;
19560;SDS011;9927;47.792;10.616;2022-12-18T06:08:10;39.43;;;17.63;;
19560;SDS011;9927;47.792;10.616;2022-12-18T06:10:38;80.73;;;19.23;;
19560;SDS011;9927;47.792;10.616;2022-12-18T06:13:06;62.87;;;18.90;;
19560;SDS011;9927;47.792;10.616;2022-12-18T06:15:36;42.77;;;19.80;;
19560;SDS011;9927;47.792;10.616;2022-12-18T06:18:04;51.93;;;20.13;;
19560;SDS011;9927;47.792;10.616;2022-12-18T06:20:31;42.00;;;18.63;;
19560;SDS011;9927;47.792;10.616;2022-12-18T06:22:59;45.57;;;19.13;;
19560;SDS011;9927;47.792;10.616;2022-12-18T06:25:27;39.67;;;18.27;;
19560;SDS011;9927;47.792;10.616;2022-12-18T06:27:54;39.77;;;17.77;;
19560;SDS011;9927;47.792;10.616;2022-12-18T06:30:21;35.50;;;16.13;;
19560;SDS011;9927;47.792;10.616;2022-12-18T06:32:49;40.10;;;17.90;;
19560;SDS011;9927;47.792;10.616;2022-12-18T06:35:22;107.10;;;22.30;;
19560;SDS011;9927;47.792;10.616;2022-12-18T06:37:49;47.07;;;18.47;;
19560;SDS011;9927;47.792;10.616;2022-12-18T06:40:17;43.40;;;18.17;;
19560;SDS011;9927;47.792;10.616;2022-12-18T06:42:45;50.40;;;19.47;;
19560;SDS011;9927;47.792;10.616;2022-12-18T06:45:13;40.60;;;19.03;;
19560;SDS011;9927;47.792;10.616;2022-12-18T06:47:42;37.20;;;17.97;;
19560;SDS011;9927;47.792;10.616;2022-12-18T06:50:09;46.53;;;19.63;;
19560;SDS011;9927;47.792;10.616;2022-12-18T06:52:38;35.93;;;18.13;;
19560;SDS011;9927;47.792;10.616;2022-12-18T06:55:07;38.07;;;17.97;;
19560;SDS011;9927;47.792;10.616;2022-12-18T06:57:35;39.23;;;17.80;;
19560;SDS011;9927;47.792;10.616;2022-12-18T07:00:04;47.83;;;19.87;;
19560;SDS011;9927;47.792;10.616;2022-12-18T07:02:32;40.57;;;16.73;;
19560;SDS011;9927;47.792;10.616;2022-12-18T07:05:00;38.40;;;18.17;;
19560;SDS011;9927;47.792;10.616;2022-12-18T07:07:36;38.57;;;17.23;;
19560;SDS011;9927;47.792;10.616;2022-12-18T07:10:03;45.23;;;16.97;;
19560;SDS011;9927;47.792;10.616;2022-12-18T07:12:31;38.20;;;16.87;;
19560;SDS011;9927;47.792;10.616;2022-12-18T07:14:58;40.53;;;17.17;;
19560;SDS011;9927;47.792;10.616;2022-12-18T07:17:25;37.60;;;17.67;;
19560;SDS011;9927;47.792;10.616;2022-12-18T07:19:53;38.10;;;16.70;;
19560;SDS011;9927;47.792;10.616;2022-12-18T07:22:20;42.33;;;17.87;;
19560;SDS011;9927;47.792;10.616;2022-12-18T07:24:47;38.83;;;16.00;;
19560;SDS011;9927;47.792;10.616;2022-12-18T07:27:16;42.07;;;17.87;;
19560;SDS011;9927;47.792;10.616;2022-12-18T07:29:43;46.07;;;17.63;;
19560;SDS011;9927;47.792;10.616;2022-12-18T07:32:11;42.20;;;16.77;;
19560;SDS011;9927;47.792;10.616;2022-12-18T07:34:39;38.23;;;17.70;;
19560;SDS011;9927;47.792;10.616;2022-12-18T07:37:06;35.30;;;17.20;;
19560;SDS011;9927;47.792;10.616;2022-12-18T07:39:33;86.40;;;20.00;;
19560;SDS011;9927;47.792;10.616;2022-12-18T07:42:01;42.70;;;18.43;;
19560;SDS011;9927;47.792;10.616;2022-12-18T07:44:47;30.60;;;15.93;;
19560;SDS011;9927;47.792;10.616;2022-12-18T07:47:15;53.90;;;17.87;;
19560;SDS011;9927;47.792;10.616;2022-12-18T07:49:42;49.47;;;19.17;;
19560;SDS011;9927;47.792;10.616;2022-12-18T07:52:09;47.37;;;19.50;;
19560;SDS011;9927;47.792;10.616;2022-12-18T07:54:39;40.43;;;16.63;;
19560;SDS011;9927;47.792;10.616;2022-12-18T07:57:07;40.00;;;16.57;;
19560;SDS011;9927;47.792;10.616;2022-12-18T07:59:55;39.50;;;16.93;;
19560;SDS011;9927;47.792;10.616;2022-12-18T08:02:22;43.33;;;17.67;;
19560;SDS011;9927;47.792;10.616;2022-12-18T08:04:49;36.37;;;16.23;;
19560;SDS011;9927;47.792;10.616;2022-12-18T08:07:17;39.63;;;17.00;;
19560;SDS011;9927;47.792;10.616;2022-12-18T08:09:44;37.13;;;17.63;;
19560;SDS011;9927;47.792;10.616;2022-12-18T08:12:11;38.73;;;18.53;;
19560;SDS011;9927;47.792;10.616;2022-12-18T08:14:38;37.60;;;16.87;;
19560;SDS011;9927;47.792;10.616;2022-12-18T08:17:06;35.53;;;17.37;;
19560;SDS011;9927;47.792;10.616;2022-12-18T08:19:33;36.43;;;16.97;;
19560;SDS011;9927;47.792;10.616;2022-12-18T08:22:00;48.90;;;18.20;;
19560;SDS011;9927;47.792;10.616;2022-12-18T08:24:28;45.13;;;19.23;;
19560;SDS011;9927;47.792;10.616;2022-12-18T08:26:55;36.87;;;17.93;;
19560;SDS011;9927;47.792;10.616;2022-12-18T08:29:43;57.03;;;20.13;;
19560;SDS011;9927;47.792;10.616;2022-12-18T08:32:11;47.93;;;19.63;;
19560;SDS011;9927;47.792;10.616;2022-12-18T08:34:38;38.43;;;17.83;;
19560;SDS011;9927;47.792;10.616;2022-12-18T08:37:05;37.13;;;17.70;;
19560;SDS011;9927;47.792;10.616;2022-12-18T08:39:33;47.57;;;17.50;;
19560;SDS011;9927;47.792;10.616;2022-12-18T08:42:01;38.27;;;17.17;;
19560;SDS011;9927;47.792;10.616;2022-12-18T08:44:47;49.43;;;18.23;;
19560;SDS011;9927;47.792;10.616;2022-12-18T08:47:14;39.10;;;16.67;;
19560;SDS011;9927;47.792;10.616;2022-12-18T08:49:41;44.73;;;18.60;;
19560;SDS011;9927;47.792;10.616;2022-12-18T08:52:08;32.80;;;16.63;;
19560;SDS011;9927;47.792;10.616;2022-12-18T08:54:36;46.20;;;17.37;;
19560;SDS011;9927;47.792;10.616;2022-12-18T08:57:03;39.67;;;17.80;;
19560;SDS011;9927;47.792;10.616;2022-12-18T08:59:30;46.93;;;17.67;;
19560;SDS011;9927;47.792;10.616;2022-12-18T09:01:57;41.50;;;17.80;;
19560;SDS011;9927;47.792;10.616;2022-12-18T09:04:25;39.17;;;16.83;;
19560;SDS011;9927;47.792;10.616;2022-12-18T09:06:52;38.50;;;17.47;;
19560;SDS011;9927;47.792;10.616;2022-12-18T09:09:22;35.83;;;16.67;;
19560;SDS011;9927;47.792;10.616;2022-12-18T09:11:50;29.67;;;14.90;;
19560;SDS011;9927;47.792;10.616;2022-12-18T09:14:17;37.63;;;16.30;;
19560;SDS011;9927;47.792;10.616;2022-12-18T09:16:44;34.37;;;17.00;;
19560;SDS011;9927;47.792;10.616;2022-12-18T09:19:12;39.90;;;17.53;;
19560;SDS011;9927;47.792;10.616;2022-12-18T09:21:39;41.87;;;18.83;;
19560;SDS011;9927;47.792;10.616;2022-12-18T09:24:13;38.80;;;18.00;;
19560;SDS011;9927;47.792;10.616;2022-12-18T09:26:41;45.50;;;19.93;;
19560;SDS011;9927;47.792;10.616;2022-12-18T09:29:13;34.70;;;17.27;;
19560;SDS011;9927;47.792;10.616;2022-12-18T09:31:44;37.10;;;18.60;;
19560;SDS011;9927;47.792;10.616;2022-12-18T09:34:12;38.63;;;19.60;;
19560;SDS011;9927;47.792;10.616;2022-12-18T09:36:39;40.87;;;20.57;;
19560;SDS011;9927;47.792;10.616;2022-12-18T09:39:06;41.73;;;19.67;;
19560;SDS011;9927;47.792;10.616;2022-12-18T09:41:38;40.87;;;19.20;;
19560;SDS011;9927;47.792;10.616;2022-12-18T09:44:22;43.30;;;20.17;;
19560;SDS011;9927;47.792;10.616;2022-12-18T09:46:54;41.90;;;19.40;;
19560;SDS011;9927;47.792;10.616;2022-12-18T09:49:35;41.43;;;19.30;;
19560;SDS011;9927;47.792;10.616;2022-12-18T09:54:55;35.33;;;18.17;;
19560;SDS011;9927;47.792;10.616;2022-12-18T09:57:29;35.00;;;17.23;;
19560;SDS011;9927;47.792;10.616;2022-12-18T10:00:02;38.87;;;19.80;;
19560;SDS011;9927;47.792;10.616;2022-12-18T10:02:35;37.83;;;18.73;;
19560;SDS011;9927;47.792;10.616;2022-12-18T10:05:04;41.57;;;19.70;;
19560;SDS011;9927;47.792;10.616;2022-12-18T10:10:24;40.10;;;19.20;;
19560;SDS011;9927;47.792;10.616;2022-12-18T10:15:41;42.10;;;21.43;;
19560;SDS011;9927;47.792;10.616;2022-12-18T10:21:03;40.80;;;20.60;;
19560;SDS011;9927;47.792;10.616;2022-12-18T10:26:50;45.07;;;21.33;;
19560;SDS011;9927;47.792;10.616;2022-12-18T10:29:19;40.43;;;20.83;;
19560;SDS011;9927;47.792;10.616;2022-12-18T10:31:47;40.07;;;20.20;;
19560;SDS011;9927;47.792;10.616;2022-12-18T10:34:14;38.67;;;19.70;;
19560;SDS011;9927;47.792;10.616;2022-12-18T10:36:41;42.07;;;19.87;;
19560;SDS011;9927;47.792;10.616;2022-12-18T10:39:19;34.07;;;18.43;;
19560;SDS011;9927;47.792;10.616;2022-12-18T10:42:03;42.40;;;20.20;;
19560;SDS011;9927;47.792;10.616;2022-12-18T10:44:40;53.77;;;21.80;;
19560;SDS011;9927;47.792;10.616;2022-12-18T10:47:10;41.63;;;20.10;;
19560;SDS011;9927;47.792;10.616;2022-12-18T10:49:51;52.93;;;24.03;;
19560;SDS011;9927;47.792;10.616;2022-12-18T10:52:22;51.20;;;22.97;;
19560;SDS011;9927;47.792;10.616;2022-12-18T10:54:52;51.80;;;22.87;;
19560;SDS011;9927;47.792;10.616;2022-12-18T11:00:46;41.33;;;19.83;;
19560;SDS011;9927;47.792;10.616;2022-12-18T11:02:55;43.73;;;21.43;;
19560;SDS011;9927;47.792;10.616;2022-12-18T11:05:28;40.37;;;19.87;;
19560;SDS011;9927;47.792;10.616;2022-12-18T11:07:57;43.93;;;20.60;;
19560;SDS011;9927;47.792;10.616;2022-12-18T11:10:33;36.07;;;18.70;;
19560;SDS011;9927;47.792;10.616;2022-12-18T11:13:09;39.97;;;19.40;;
19560;SDS011;9927;47.792;10.616;2022-12-18T11:15:47;43.60;;;19.00;;
19560;SDS011;9927;47.792;10.616;2022-12-18T11:20:52;42.40;;;19.90;;
19560;SDS011;9927;47.792;10.616;2022-12-18T11:23:49;47.53;;;20.90;;
19560;SDS011;9927;47.792;10.616;2022-12-18T11:26:18;40.63;;;20.00;;
19560;SDS011;9927;47.792;10.616;2022-12-18T11:28:51;45.43;;;21.10;;
19560;SDS011;9927;47.792;10.616;2022-12-18T11:31:33;46.83;;;22.10;;
19560;SDS011;9927;47.792;10.616;2022-12-18T11:34:02;47.63;;;21.90;;
19560;SDS011;9927;47.792;10.616;2022-12-18T11:36:57;50.90;;;22.57;;
19560;SDS011;9927;47.792;10.616;2022-12-18T11:45:01;42.97;;;20.07;;
19560;SDS011;9927;47.792;10.616;2022-12-18T11:47:43;42.50;;;20.07;;
19560;SDS011;9927;47.792;10.616;2022-12-18T11:50:32;50.10;;;19.60;;
19560;SDS011;9927;47.792;10.616;2022-12-18T11:53:03;41.70;;;19.60;;
19560;SDS011;9927;47.792;10.616;2022-12-18T11:58:18;49.03;;;21.33;;
19560;SDS011;9927;47.792;10.616;2022-12-18T12:01:03;40.63;;;20.50;;
19560;SDS011;9927;47.792;10.616;2022-12-18T12:06:30;45.23;;;20.53;;
19560;SDS011;9927;47.792;10.616;2022-12-18T12:09:27;41.83;;;20.33;;
19560;SDS011;9927;47.792;10.616;2022-12-18T12:25:44;44.07;;;20.93;;
19560;SDS011;9927;47.792;10.616;2022-12-18T12:31:32;44.17;;;21.23;;
19560;SDS011;9927;47.792;10.616;2022-12-18T12:39:30;47.80;;;22.60;;
19560;SDS011;9927;47.792;10.616;2022-12-18T12:42:04;41.80;;;21.03;;
19560;SDS011;9927;47.792;10.616;2022-12-18T12:44:57;49.47;;;24.00;;
19560;SDS011;9927;47.792;10.616;2022-12-18T12:47:30;50.13;;;23.73;;
19560;SDS011;9927;47.792;10.616;2022-12-18T12:50:03;39.03;;;20.60;;
19560;SDS011;9927;47.792;10.616;2022-12-18T12:52:59;39.97;;;21.27;;
19560;SDS011;9927;47.792;10.616;2022-12-18T12:55:28;49.10;;;22.33;;
19560;SDS011;9927;47.792;10.616;2022-12-18T12:58:05;38.00;;;19.67;;
19560;SDS011;9927;47.792;10.616;2022-12-18T13:00:46;44.07;;;21.20;;
19560;SDS011;9927;47.792;10.616;2022-12-18T13:05:59;40.77;;;20.57;;
19560;SDS011;9927;47.792;10.616;2022-12-18T13:08:34;38.33;;;19.77;;
19560;SDS011;9927;47.792;10.616;2022-12-18T13:14:34;38.53;;;19.10;;
19560;SDS011;9927;47.792;10.616;2022-12-18T13:17:14;42.10;;;21.87;;
19560;SDS011;9927;47.792;10.616;2022-12-18T13:19:49;44.53;;;21.73;;
19560;SDS011;9927;47.792;10.616;2022-12-18T13:22:22;43.50;;;20.77;;
19560;SDS011;9927;47.792;10.616;2022-12-18T13:24:51;42.20;;;20.67;;
19560;SDS011;9927;47.792;10.616;2022-12-18T13:30:59;42.33;;;20.80;;
19560;SDS011;9927;47.792;10.616;2022-12-18T13:35:41;40.73;;;20.67;;
19560;SDS011;9927;47.792;10.616;2022-12-18T13:46:01;44.87;;;21.43;;
19560;SDS011;9927;47.792;10.616;2022-12-18T13:49:01;49.77;;;22.73;;
19560;SDS011;9927;47.792;10.616;2022-12-18T13:51:32;43.50;;;21.73;;
19560;SDS011;9927;47.792;10.616;2022-12-18T13:54:17;43.57;;;21.00;;
19560;SDS011;9927;47.792;10.616;2022-12-18T13:57:01;38.37;;;20.00;;
19560;SDS011;9927;47.792;10.616;2022-12-18T14:04:44;44.10;;;22.07;;
19560;SDS011;9927;47.792;10.616;2022-12-18T14:07:22;41.03;;;19.90;;
19560;SDS011;9927;47.792;10.616;2022-12-18T14:09:56;45.00;;;21.80;;
19560;SDS011;9927;47.792;10.616;2022-12-18T14:12:48;41.30;;;20.37;;
19560;SDS011;9927;47.792;10.616;2022-12-18T14:20:43;43.43;;;19.93;;
19560;SDS011;9927;47.792;10.616;2022-12-18T14:23:25;38.23;;;20.40;;
19560;SDS011;9927;47.792;10.616;2022-12-18T14:25:59;42.60;;;20.33;;
19560;SDS011;9927;47.792;10.616;2022-12-18T14:28:32;39.67;;;20.13;;
19560;SDS011;9927;47.792;10.616;2022-12-18T14:30:59;36.53;;;18.53;;
19560;SDS011;9927;47.792;10.616;2022-12-18T14:33:27;38.70;;;18.83;;
19560;SDS011;9927;47.792;10.616;2022-12-18T14:35:58;38.40;;;19.27;;
19560;SDS011;9927;47.792;10.616;2022-12-18T14:38:35;41.53;;;20.67;;
19560;SDS011;9927;47.792;10.616;2022-12-18T14:41:04;40.40;;;21.33;;
19560;SDS011;9927;47.792;10.616;2022-12-18T14:43:43;41.70;;;20.87;;
19560;SDS011;9927;47.792;10.616;2022-12-18T14:48:56;52.40;;;21.60;;
19560;SDS011;9927;47.792;10.616;2022-12-18T14:51:25;41.57;;;20.33;;
19560;SDS011;9927;47.792;10.616;2022-12-18T14:53:55;43.73;;;20.77;;
19560;SDS011;9927;47.792;10.616;2022-12-18T14:56:25;40.70;;;21.80;;
19560;SDS011;9927;47.792;10.616;2022-12-18T15:04:04;51.13;;;24.20;;
19560;SDS011;9927;47.792;10.616;2022-12-18T15:07:03;50.23;;;22.97;;
19560;SDS011;9927;47.792;10.616;2022-12-18T15:09:37;47.53;;;23.20;;
19560;SDS011;9927;47.792;10.616;2022-12-18T15:12:16;42.67;;;21.80;;
19560;SDS011;9927;47.792;10.616;2022-12-18T15:14:52;44.27;;;21.97;;
19560;SDS011;9927;47.792;10.616;2022-12-18T15:17:23;50.70;;;22.83;;
19560;SDS011;9927;47.792;10.616;2022-12-18T15:19:53;57.40;;;23.20;;
19560;SDS011;9927;47.792;10.616;2022-12-18T15:22:30;41.80;;;20.97;;
19560;SDS011;9927;47.792;10.616;2022-12-18T15:25:02;40.77;;;21.20;;
19560;SDS011;9927;47.792;10.616;2022-12-18T15:27:46;43.43;;;21.73;;
19560;SDS011;9927;47.792;10.616;2022-12-18T15:32:41;42.70;;;22.10;;
19560;SDS011;9927;47.792;10.616;2022-12-18T15:37:49;45.90;;;22.80;;
19560;SDS011;9927;47.792;10.616;2022-12-18T15:40:22;46.73;;;23.07;;
19560;SDS011;9927;47.792;10.616;2022-12-18T15:42:51;44.97;;;21.90;;
19560;SDS011;9927;47.792;10.616;2022-12-18T15:45:39;49.33;;;23.03;;
19560;SDS011;9927;47.792;10.616;2022-12-18T15:48:14;39.30;;;20.57;;
19560;SDS011;9927;47.792;10.616;2022-12-18T15:50:46;46.60;;;22.10;;
19560;SDS011;9927;47.792;10.616;2022-12-18T15:53:13;46.37;;;20.77;;
19560;SDS011;9927;47.792;10.616;2022-12-18T15:55:40;41.47;;;21.23;;
19560;SDS011;9927;47.792;10.616;2022-12-18T15:58:27;40.17;;;20.03;;
19560;SDS011;9927;47.792;10.616;2022-12-18T16:00:54;42.20;;;20.87;;
19560;SDS011;9927;47.792;10.616;2022-12-18T16:03:24;39.80;;;19.87;;
19560;SDS011;9927;47.792;10.616;2022-12-18T16:05:52;38.67;;;19.47;;
19560;SDS011;9927;47.792;10.616;2022-12-18T16:08:19;42.00;;;20.40;;
19560;SDS011;9927;47.792;10.616;2022-12-18T16:10:47;57.87;;;25.57;;
19560;SDS011;9927;47.792;10.616;2022-12-18T16:13:15;41.90;;;22.23;;
19560;SDS011;9927;47.792;10.616;2022-12-18T16:15:45;39.53;;;21.77;;
19560;SDS011;9927;47.792;10.616;2022-12-18T16:18:13;33.83;;;17.33;;
19560;SDS011;9927;47.792;10.616;2022-12-18T16:20:40;24.63;;;15.47;;
19560;SDS011;9927;47.792;10.616;2022-12-18T16:23:07;28.00;;;17.07;;
19560;SDS011;9927;47.792;10.616;2022-12-18T16:25:35;33.73;;;19.23;;
19560;SDS011;9927;47.792;10.616;2022-12-18T16:28:02;25.93;;;15.87;;
19560;SDS011;9927;47.792;10.616;2022-12-18T16:30:30;24.07;;;16.33;;
19560;SDS011;9927;47.792;10.616;2022-12-18T16:33:04;36.50;;;20.37;;
19560;SDS011;9927;47.792;10.616;2022-12-18T16:35:33;35.63;;;21.07;;
19560;SDS011;9927;47.792;10.616;2022-12-18T16:38:00;29.07;;;17.67;;
19560;SDS011;9927;47.792;10.616;2022-12-18T16:40:28;31.30;;;17.73;;
19560;SDS011;9927;47.792;10.616;2022-12-18T16:42:58;33.13;;;21.33;;
19560;SDS011;9927;47.792;10.616;2022-12-18T16:45:26;34.37;;;19.50;;
19560;SDS011;9927;47.792;10.616;2022-12-18T16:47:59;33.23;;;19.20;;
19560;SDS011;9927;47.792;10.616;2022-12-18T16:50:26;40.13;;;22.73;;
19560;SDS011;9927;47.792;10.616;2022-12-18T16:52:54;49.33;;;24.07;;
19560;SDS011;9927;47.792;10.616;2022-12-18T16:55:21;45.70;;;24.73;;
19560;SDS011;9927;47.792;10.616;2022-12-18T16:57:48;35.20;;;21.77;;
19560;SDS011;9927;47.792;10.616;2022-12-18T17:00:16;35.57;;;20.63;;
19560;SDS011;9927;47.792;10.616;2022-12-18T17:02:43;37.57;;;21.93;;
19560;SDS011;9927;47.792;10.616;2022-12-18T17:05:12;38.83;;;22.30;;
19560;SDS011;9927;47.792;10.616;2022-12-18T17:07:40;46.83;;;26.20;;
19560;SDS011;9927;47.792;10.616;2022-12-18T17:10:07;55.77;;;27.93;;
19560;SDS011;9927;47.792;10.616;2022-12-18T17:12:35;56.90;;;27.20;;
19560;SDS011;9927;47.792;10.616;2022-12-18T17:15:03;45.83;;;24.23;;
19560;SDS011;9927;47.792;10.616;2022-12-18T17:17:30;49.40;;;25.27;;
19560;SDS011;9927;47.792;10.616;2022-12-18T17:19:57;55.10;;;29.90;;
19560;SDS011;9927;47.792;10.616;2022-12-18T17:22:25;58.83;;;30.73;;
19560;SDS011;9927;47.792;10.616;2022-12-18T17:24:52;63.60;;;32.50;;
19560;SDS011;9927;47.792;10.616;2022-12-18T17:27:19;54.23;;;28.70;;
19560;SDS011;9927;47.792;10.616;2022-12-18T17:29:46;59.50;;;30.37;;
19560;SDS011;9927;47.792;10.616;2022-12-18T17:32:15;46.57;;;26.43;;
19560;SDS011;9927;47.792;10.616;2022-12-18T17:34:43;52.07;;;28.03;;
19560;SDS011;9927;47.792;10.616;2022-12-18T17:37:10;52.87;;;25.93;;
19560;SDS011;9927;47.792;10.616;2022-12-18T17:39:38;63.83;;;31.67;;
19560;SDS011;9927;47.792;10.616;2022-12-18T17:42:06;62.20;;;29.33;;
19560;SDS011;9927;47.792;10.616;2022-12-18T17:44:41;57.10;;;29.77;;
19560;SDS011;9927;47.792;10.616;2022-12-18T17:47:09;53.73;;;28.30;;
19560;SDS011;9927;47.792;10.616;2022-12-18T17:49:37;53.30;;;29.50;;
19560;SDS011;9927;47.792;10.616;2022-12-18T17:52:05;50.67;;;27.30;;
19560;SDS011;9927;47.792;10.616;2022-12-18T17:54:32;62.80;;;29.77;;
19560;SDS011;9927;47.792;10.616;2022-12-18T17:57:01;61.37;;;30.57;;
19560;SDS011;9927;47.792;10.616;2022-12-18T17:59:28;54.23;;;29.67;;
19560;SDS011;9927;47.792;10.616;2022-12-18T18:01:55;56.73;;;30.33;;
19560;SDS011;9927;47.792;10.616;2022-12-18T18:04:23;56.90;;;28.53;;
19560;SDS011;9927;47.792;10.616;2022-12-18T18:06:50;65.17;;;33.57;;
19560;SDS011;9927;47.792;10.616;2022-12-18T18:09:17;63.30;;;34.73;;
19560;SDS011;9927;47.792;10.616;2022-12-18T18:11:45;66.23;;;35.50;;
19560;SDS011;9927;47.792;10.616;2022-12-18T18:14:30;63.17;;;31.37;;
19560;SDS011;9927;47.792;10.616;2022-12-18T18:16:59;61.07;;;32.27;;
19560;SDS011;9927;47.792;10.616;2022-12-18T18:19:31;63.27;;;33.27;;
19560;SDS011;9927;47.792;10.616;2022-12-18T18:21:59;62.07;;;32.73;;
19560;SDS011;9927;47.792;10.616;2022-12-18T18:24:28;69.03;;;35.33;;
19560;SDS011;9927;47.792;10.616;2022-12-18T18:26:56;64.97;;;34.23;;
19560;SDS011;9927;47.792;10.616;2022-12-18T18:29:26;71.80;;;37.37;;
19560;SDS011;9927;47.792;10.616;2022-12-18T18:31:56;72.03;;;35.97;;
19560;SDS011;9927;47.792;10.616;2022-12-18T18:34:24;66.87;;;34.30;;
19560;SDS011;9927;47.792;10.616;2022-12-18T18:36:54;57.57;;;32.13;;
19560;SDS011;9927;47.792;10.616;2022-12-18T18:39:21;68.60;;;34.73;;
19560;SDS011;9927;47.792;10.616;2022-12-18T18:41:49;57.30;;;30.90;;
19560;SDS011;9927;47.792;10.616;2022-12-18T18:44:17;64.17;;;31.97;;
19560;SDS011;9927;47.792;10.616;2022-12-18T18:46:54;60.07;;;33.10;;
19560;SDS011;9927;47.792;10.616;2022-12-18T18:49:23;67.47;;;33.40;;
19560;SDS011;9927;47.792;10.616;2022-12-18T18:51:54;58.37;;;31.47;;
19560;SDS011;9927;47.792;10.616;2022-12-18T18:54:23;51.60;;;30.17;;
19560;SDS011;9927;47.792;10.616;2022-12-18T18:56:50;56.40;;;29.27;;
19560;SDS011;9927;47.792;10.616;2022-12-18T18:59:38;58.23;;;31.73;;
19560;SDS011;9927;47.792;10.616;2022-12-18T19:02:05;65.97;;;34.60;;
19560;SDS011;9927;47.792;10.616;2022-12-18T19:04:36;58.10;;;31.87;;
19560;SDS011;9927;47.792;10.616;2022-12-18T19:07:12;62.13;;;33.47;;
19560;SDS011;9927;47.792;10.616;2022-12-18T19:09:56;75.00;;;36.47;;
19560;SDS011;9927;47.792;10.616;2022-12-18T19:12:30;83.70;;;40.33;;
19560;SDS011;9927;47.792;10.616;2022-12-18T19:15:16;66.93;;;35.43;;
19560;SDS011;9927;47.792;10.616;2022-12-18T19:17:44;68.50;;;34.83;;
19560;SDS011;9927;47.792;10.616;2022-12-18T19:20:13;66.60;;;34.80;;
19560;SDS011;9927;47.792;10.616;2022-12-18T19:22:41;60.23;;;33.47;;
19560;SDS011;9927;47.792;10.616;2022-12-18T19:25:09;63.37;;;34.73;;
19560;SDS011;9927;47.792;10.616;2022-12-18T19:27:37;64.90;;;35.47;;
19560;SDS011;9927;47.792;10.616;2022-12-18T19:30:05;61.87;;;31.97;;
19560;SDS011;9927;47.792;10.616;2022-12-18T19:32:33;61.13;;;34.43;;
19560;SDS011;9927;47.792;10.616;2022-12-18T19:35:01;69.43;;;38.03;;
19560;SDS011;9927;47.792;10.616;2022-12-18T19:37:28;67.57;;;36.10;;
19560;SDS011;9927;47.792;10.616;2022-12-18T19:39:56;66.77;;;36.13;;
19560;SDS011;9927;47.792;10.616;2022-12-18T19:42:25;62.20;;;34.33;;
19560;SDS011;9927;47.792;10.616;2022-12-18T19:45:01;67.33;;;34.90;;
19560;SDS011;9927;47.792;10.616;2022-12-18T19:47:28;58.53;;;30.63;;
19560;SDS011;9927;47.792;10.616;2022-12-18T19:49:58;57.57;;;31.43;;
19560;SDS011;9927;47.792;10.616;2022-12-18T19:52:26;54.40;;;29.23;;
19560;SDS011;9927;47.792;10.616;2022-12-18T19:54:53;50.00;;;28.53;;
19560;SDS011;9927;47.792;10.616;2022-12-18T19:57:20;52.27;;;28.20;;
19560;SDS011;9927;47.792;10.616;2022-12-18T19:59:47;46.80;;;26.77;;
19560;SDS011;9927;47.792;10.616;2022-12-18T20:02:15;44.60;;;25.87;;
19560;SDS011;9927;47.792;10.616;2022-12-18T20:04:43;50.40;;;27.63;;
19560;SDS011;9927;47.792;10.616;2022-12-18T20:07:10;48.33;;;27.03;;
19560;SDS011;9927;47.792;10.616;2022-12-18T20:09:37;57.50;;;31.73;;
19560;SDS011;9927;47.792;10.616;2022-12-18T20:12:05;52.13;;;29.17;;
19560;SDS011;9927;47.792;10.616;2022-12-18T20:14:32;56.13;;;30.97;;
19560;SDS011;9927;47.792;10.616;2022-12-18T20:16:59;52.77;;;29.63;;
19560;SDS011;9927;47.792;10.616;2022-12-18T20:19:27;54.70;;;29.97;;